ESMS/MMX METAR and TAF weather

Enter ICAO airport designator
Station Type Date Time Source
ESMS METAR 2019/06/18 12:20 UTC NOAA

ESMS 181220Z 14011KT CAVOK 22/13 Q1018


Station Type Date Time Source
ESMS Decoded METAR 2019/06/18 12:20 UTC NOAA

Malmo / Sturup, Sweden (ESMS) 55-33N 013-22E
Jun 18, 2019 - 08:20 AM EDT / 2019.06.18 1220 UTC
Wind: from the SE (140 degrees) at 13 MPH (11 KT):0
Visibility: greater than 7 mile(s):0
Temperature: 71 F (22 C)
Dew Point: 55 F (13 C)
Relative Humidity: 56%
Pressure (altimeter): 30.06 in. Hg (1018 hPa)
ob: ESMS 181220Z 14011KT CAVOK 22/13 Q1018
cycle: 12

Station Type Date Time Source
ESMS TAF 2019/06/18 12:33 UTC NOAA

TAF ESMS 181109Z 1812/1912 14013KT 9999 FEW040

Example: see airport list